createdAt,value
2019-03-26T00:00:28.140Z,0.00
2019-03-26T00:01:28.130Z,0.00
2019-03-26T00:02:28.140Z,0.00
2019-03-26T00:03:28.109Z,0.00
2019-03-26T00:04:28.091Z,0.00
2019-03-26T00:05:28.081Z,0.00
2019-03-26T00:06:28.080Z,0.00
2019-03-26T00:07:28.098Z,0.00
2019-03-26T00:08:28.057Z,0.00
2019-03-26T00:09:28.045Z,0.00
2019-03-26T00:10:28.035Z,0.00
2019-03-26T00:11:28.016Z,0.00
2019-03-26T00:12:28.041Z,0.00
2019-03-26T00:13:28.009Z,0.00
2019-03-26T00:14:27.998Z,0.00
2019-03-26T00:15:27.977Z,0.00
2019-03-26T00:16:27.965Z,0.00
2019-03-26T00:17:27.959Z,0.00
2019-03-26T00:18:27.965Z,0.00
2019-03-26T00:19:27.945Z,0.00
2019-03-26T00:20:27.930Z,0.00
2019-03-26T00:21:27.924Z,0.00
2019-03-26T00:22:27.911Z,0.00
2019-03-26T00:23:27.924Z,0.00
2019-03-26T00:24:27.883Z,0.00
2019-03-26T00:25:27.871Z,0.00
2019-03-26T00:26:27.867Z,0.00
2019-03-26T00:27:27.862Z,0.00
2019-03-26T00:28:27.847Z,0.00
2019-03-26T00:29:27.851Z,0.00
2019-03-26T00:30:27.822Z,0.00
2019-03-26T00:31:27.815Z,0.00
2019-03-26T00:32:27.805Z,0.00
2019-03-26T00:33:36.166Z,0.00
2019-03-26T00:34:28.809Z,0.00
2019-03-26T00:35:27.769Z,0.00
2019-03-26T00:36:27.786Z,0.00
2019-03-26T00:37:27.747Z,0.00
2019-03-26T00:38:27.794Z,0.00
2019-03-26T00:39:27.737Z,0.00
2019-03-26T00:40:27.730Z,0.00
2019-03-26T00:41:27.731Z,0.00
2019-03-26T00:42:27.720Z,0.00
2019-03-26T00:43:27.686Z,0.00
2019-03-26T00:44:27.675Z,0.00
2019-03-26T00:45:27.678Z,0.00
2019-03-26T00:46:27.682Z,0.00
2019-03-26T00:47:27.663Z,0.00
2019-03-26T00:48:27.639Z,0.00
2019-03-26T00:49:27.622Z,0.00
2019-03-26T00:50:27.614Z,0.00
2019-03-26T00:51:27.607Z,0.00
2019-03-26T00:52:27.618Z,0.00
2019-03-26T00:53:27.586Z,0.00
2019-03-26T00:54:27.575Z,0.00
2019-03-26T00:55:27.563Z,0.00
2019-03-26T00:56:27.554Z,0.00
2019-03-26T00:57:27.564Z,0.00
2019-03-26T00:58:27.528Z,0.00
2019-03-26T00:59:27.524Z,0.00
2019-03-26T01:00:27.514Z,0.00
2019-03-26T01:01:27.505Z,0.00
2019-03-26T01:02:27.526Z,0.00
2019-03-26T01:03:27.485Z,0.00
2019-03-26T01:04:32.921Z,0.00
2019-03-26T01:05:28.462Z,0.00
2019-03-26T01:06:27.472Z,0.00
2019-03-26T01:07:27.455Z,0.00
2019-03-26T01:08:27.436Z,0.00
2019-03-26T01:09:27.416Z,0.00
2019-03-26T01:10:27.409Z,0.00
2019-03-26T01:11:27.420Z,0.00
2019-03-26T01:12:27.391Z,0.00
2019-03-26T01:13:27.379Z,0.00
2019-03-26T01:14:27.377Z,0.00
2019-03-26T01:15:27.360Z,0.00
2019-03-26T01:16:27.372Z,0.00
2019-03-26T01:17:27.337Z,0.00
2019-03-26T01:18:27.330Z,0.00
2019-03-26T01:19:27.344Z,0.00
2019-03-26T01:20:27.311Z,0.00
2019-03-26T01:21:27.290Z,0.00
2019-03-26T01:22:27.284Z,0.00
2019-03-26T01:23:27.279Z,0.00
2019-03-26T01:24:27.266Z,0.00
2019-03-26T01:25:27.278Z,0.00
2019-03-26T01:26:27.251Z,0.00
2019-03-26T01:27:27.231Z,0.00
2019-03-26T01:28:27.223Z,0.00
2019-03-26T01:29:27.210Z,0.00
2019-03-26T01:30:27.237Z,0.00
2019-03-26T01:31:27.193Z,0.00
2019-03-26T01:32:27.185Z,0.00
2019-03-26T01:33:27.170Z,0.00
2019-03-26T01:34:27.158Z,0.00
2019-03-26T01:35:27.151Z,0.00
2019-03-26T01:36:27.169Z,0.00
2019-03-26T01:37:27.134Z,0.00
2019-03-26T01:38:27.125Z,0.00
2019-03-26T01:39:27.114Z,0.00
2019-03-26T01:40:27.097Z,0.00
2019-03-26T01:41:27.104Z,0.00
2019-03-26T01:42:27.074Z,0.00
2019-03-26T01:43:27.070Z,0.00
2019-03-26T01:44:27.064Z,0.00
2019-03-26T01:45:27.057Z,0.00
2019-03-26T01:46:27.061Z,0.00
2019-03-26T01:47:27.026Z,0.00
2019-03-26T01:48:27.013Z,0.00
2019-03-26T01:49:27.031Z,0.00
2019-03-26T01:50:27.005Z,0.00
2019-03-26T01:51:27.010Z,0.00
2019-03-26T01:52:26.970Z,0.00
2019-03-26T01:53:26.961Z,0.00
2019-03-26T01:54:26.951Z,0.00
2019-03-26T01:55:26.966Z,0.00
2019-03-26T01:56:26.940Z,0.00
2019-03-26T01:57:26.948Z,0.00
2019-03-26T01:58:26.914Z,0.00
2019-03-26T01:59:26.901Z,0.00
2019-03-26T02:00:26.910Z,0.00
2019-03-26T02:01:26.886Z,0.00
2019-03-26T02:02:26.898Z,0.00
2019-03-26T02:03:26.869Z,0.00
2019-03-26T02:04:26.852Z,0.00
2019-03-26T02:05:26.844Z,0.00
2019-03-26T02:06:26.827Z,0.00
2019-03-26T02:07:26.826Z,0.00
2019-03-26T02:08:26.829Z,0.00
2019-03-26T02:09:26.802Z,0.00
2019-03-26T02:10:26.794Z,0.00
2019-03-26T02:11:26.774Z,0.00
2019-03-26T02:12:26.779Z,0.00
2019-03-26T02:13:26.773Z,0.00
2019-03-26T02:14:26.744Z,0.00
2019-03-26T02:15:26.746Z,0.00
2019-03-26T02:16:26.729Z,0.00
2019-03-26T02:17:26.719Z,0.00
2019-03-26T02:18:26.747Z,0.00
2019-03-26T02:19:26.695Z,0.00
2019-03-26T02:20:26.681Z,0.00
2019-03-26T02:21:26.684Z,0.00
2019-03-26T02:22:26.665Z,0.00
2019-03-26T02:23:26.652Z,0.00
2019-03-26T02:24:26.666Z,0.00
2019-03-26T02:25:26.638Z,0.00
2019-03-26T02:26:26.624Z,0.00
2019-03-26T02:27:26.615Z,0.00
2019-03-26T02:28:26.603Z,0.00
2019-03-26T02:29:26.613Z,0.00
2019-03-26T02:30:26.586Z,0.00
2019-03-26T02:31:26.575Z,0.00
2019-03-26T02:32:26.560Z,0.00
2019-03-26T02:33:26.574Z,0.00
2019-03-26T02:34:26.560Z,0.00
2019-03-26T02:35:26.533Z,0.00
2019-03-26T02:36:26.530Z,0.00
2019-03-26T02:37:26.508Z,0.00
2019-03-26T02:38:26.496Z,0.00
2019-03-26T02:39:26.517Z,0.00
2019-03-26T02:40:26.490Z,0.00
2019-03-26T02:41:26.471Z,0.00
2019-03-26T02:42:26.467Z,0.00
2019-03-26T02:43:26.484Z,0.00
2019-03-26T02:44:26.437Z,0.00
2019-03-26T02:45:26.423Z,0.00
2019-03-26T02:46:26.414Z,0.00
2019-03-26T02:47:26.416Z,0.00
2019-03-26T02:48:26.430Z,0.00
2019-03-26T02:49:26.395Z,0.00
2019-03-26T02:50:26.386Z,0.00
2019-03-26T02:51:26.361Z,0.00
2019-03-26T02:52:26.352Z,0.00
2019-03-26T02:53:26.352Z,0.00
2019-03-26T02:54:26.357Z,0.00
2019-03-26T02:55:26.325Z,0.00
2019-03-26T02:56:26.309Z,0.00
2019-03-26T02:57:26.301Z,0.00
2019-03-26T02:58:26.293Z,0.00
2019-03-26T02:59:26.313Z,0.00
2019-03-26T03:00:26.292Z,0.00
2019-03-26T03:01:26.267Z,0.00
2019-03-26T03:02:26.256Z,0.00
2019-03-26T03:03:26.243Z,0.00
2019-03-26T03:04:26.227Z,0.00
2019-03-26T03:05:35.355Z,0.00
2019-03-26T03:06:27.205Z,0.00
2019-03-26T03:07:26.209Z,0.00
2019-03-26T03:08:26.193Z,0.00
2019-03-26T03:09:26.180Z,0.00
2019-03-26T03:10:26.195Z,0.00
2019-03-26T03:11:26.162Z,0.00
2019-03-26T03:12:26.155Z,0.00
2019-03-26T03:13:26.148Z,0.00
2019-03-26T03:14:26.207Z,0.00
2019-03-26T03:15:26.149Z,0.00
2019-03-26T03:16:26.105Z,0.00
2019-03-26T03:17:26.094Z,0.00
2019-03-26T03:18:26.081Z,0.00
2019-03-26T03:19:26.079Z,0.00
2019-03-26T03:20:26.068Z,0.00
2019-03-26T03:21:26.079Z,0.00
2019-03-26T03:22:26.906Z,0.00
2019-03-26T03:23:26.032Z,0.00
2019-03-26T03:24:26.030Z,0.00
2019-03-26T03:25:26.022Z,0.00
2019-03-26T03:26:26.027Z,0.00
2019-03-26T03:27:25.993Z,0.00
2019-03-26T03:28:25.982Z,0.00
2019-03-26T03:29:25.984Z,0.00
2019-03-26T03:30:25.967Z,0.00
2019-03-26T03:31:25.981Z,0.00
2019-03-26T03:32:25.946Z,0.00
2019-03-26T03:33:25.937Z,0.00
2019-03-26T03:34:26.093Z,0.00
2019-03-26T03:35:25.906Z,0.00
2019-03-26T03:36:25.919Z,0.00
2019-03-26T03:37:25.889Z,0.00
2019-03-26T03:38:25.880Z,0.00
2019-03-26T03:39:25.895Z,0.00
2019-03-26T03:40:25.873Z,0.00
2019-03-26T03:41:25.848Z,0.00
2019-03-26T03:42:25.860Z,0.00
2019-03-26T03:43:25.834Z,0.00
2019-03-26T03:44:25.876Z,0.00
2019-03-26T03:45:25.810Z,0.00
2019-03-26T03:46:25.802Z,0.00
2019-03-26T03:47:25.787Z,0.00
2019-03-26T03:48:25.784Z,0.00
2019-03-26T03:49:25.817Z,0.00
2019-03-26T03:50:25.775Z,0.00
2019-03-26T03:51:25.749Z,0.00
2019-03-26T03:52:25.769Z,0.00
2019-03-26T03:53:25.732Z,0.00
2019-03-26T03:54:25.725Z,0.00
2019-03-26T03:55:25.703Z,0.00
2019-03-26T03:56:25.697Z,0.00
2019-03-26T03:57:25.687Z,0.00
2019-03-26T03:58:25.710Z,0.00
2019-03-26T03:59:25.661Z,0.00
2019-03-26T04:00:25.653Z,0.00
2019-03-26T04:01:25.643Z,0.00
2019-03-26T04:02:25.631Z,0.00
2019-03-26T04:03:25.646Z,0.00
2019-03-26T04:04:25.619Z,0.00
2019-03-26T04:05:25.608Z,0.00
2019-03-26T04:06:25.596Z,0.00
2019-03-26T04:07:25.580Z,0.00
2019-03-26T04:08:25.586Z,0.00
2019-03-26T04:09:25.560Z,0.00
2019-03-26T04:10:25.554Z,0.00
2019-03-26T04:11:25.567Z,0.00
2019-03-26T04:12:25.554Z,0.00
2019-03-26T04:13:25.522Z,0.00
2019-03-26T04:14:25.527Z,0.00
2019-03-26T04:15:25.511Z,0.00
2019-03-26T04:16:25.494Z,0.00
2019-03-26T04:17:25.488Z,0.00
2019-03-26T04:18:25.478Z,0.00
2019-03-26T04:19:25.481Z,0.00
2019-03-26T04:20:25.465Z,0.00
2019-03-26T04:21:25.453Z,0.00
2019-03-26T04:22:25.432Z,0.00
2019-03-26T04:23:25.426Z,0.00
2019-03-26T04:24:25.408Z,0.00
2019-03-26T04:25:25.428Z,0.00
2019-03-26T04:26:25.413Z,0.00
2019-03-26T04:27:25.374Z,0.00
2019-03-26T04:28:25.375Z,0.00
2019-03-26T04:29:25.365Z,0.00
2019-03-26T04:30:25.355Z,0.00
2019-03-26T04:31:25.371Z,0.00
2019-03-26T04:32:25.321Z,0.00
2019-03-26T04:33:25.312Z,0.00
2019-03-26T04:34:25.388Z,0.00
2019-03-26T04:35:25.301Z,0.00
2019-03-26T04:36:26.658Z,0.00
2019-03-26T04:37:25.275Z,0.00
2019-03-26T04:38:25.266Z,0.00
2019-03-26T04:39:25.250Z,0.00
2019-03-26T04:40:25.246Z,0.00
2019-03-26T04:41:25.256Z,0.00
2019-03-26T04:42:25.225Z,0.00
2019-03-26T04:43:25.224Z,0.00
2019-03-26T04:44:25.209Z,0.00
2019-03-26T04:45:25.194Z,0.00
2019-03-26T04:46:25.225Z,5.62
2019-03-26T04:47:25.199Z,5.62
2019-03-26T04:48:25.176Z,5.62
2019-03-26T04:49:25.163Z,5.62
2019-03-26T04:50:25.150Z,5.62
2019-03-26T04:51:25.126Z,5.62
2019-03-26T04:52:25.143Z,5.62
2019-03-26T04:53:25.106Z,11.25
2019-03-26T04:54:25.094Z,11.25
2019-03-26T04:55:25.091Z,11.25
2019-03-26T04:56:25.081Z,11.25
2019-03-26T04:57:25.070Z,11.25
2019-03-26T04:58:25.148Z,11.25
2019-03-26T04:59:25.044Z,16.88
2019-03-26T05:00:25.049Z,11.25
2019-03-26T05:01:25.033Z,16.88
2019-03-26T05:02:25.035Z,16.88
2019-03-26T05:03:25.004Z,16.88
2019-03-26T05:04:25.011Z,16.88
2019-03-26T05:05:24.984Z,16.88
2019-03-26T05:06:37.225Z,22.50
2019-03-26T05:07:25.966Z,22.50
2019-03-26T05:08:24.977Z,22.50
2019-03-26T05:09:24.947Z,22.50
2019-03-26T05:10:24.947Z,22.50
2019-03-26T05:11:24.920Z,22.50
2019-03-26T05:12:24.907Z,22.50
2019-03-26T05:13:24.955Z,22.50
2019-03-26T05:14:24.891Z,22.50
2019-03-26T05:15:24.891Z,22.50
2019-03-26T05:16:24.888Z,28.12
2019-03-26T05:17:24.862Z,22.50
2019-03-26T05:18:24.846Z,22.50
2019-03-26T05:19:24.861Z,16.88
2019-03-26T05:20:24.832Z,16.88
2019-03-26T05:21:24.821Z,16.88
2019-03-26T05:22:24.811Z,16.88
2019-03-26T05:23:24.794Z,22.50
2019-03-26T05:24:24.809Z,22.50
2019-03-26T05:25:24.773Z,22.50
2019-03-26T05:26:24.766Z,22.50
2019-03-26T05:27:24.761Z,22.50
2019-03-26T05:28:24.773Z,22.50
2019-03-26T05:29:24.757Z,22.50
2019-03-26T05:30:24.750Z,22.50
2019-03-26T05:31:24.711Z,22.50
2019-03-26T05:32:24.702Z,28.12
2019-03-26T05:33:24.705Z,22.50
2019-03-26T05:34:24.713Z,28.12
2019-03-26T05:35:24.667Z,22.50
2019-03-26T05:36:24.679Z,22.50
2019-03-26T05:37:24.663Z,22.50
2019-03-26T05:38:24.639Z,22.50
2019-03-26T05:39:24.645Z,22.50
2019-03-26T05:40:24.624Z,22.50
2019-03-26T05:41:24.659Z,22.50
2019-03-26T05:42:24.604Z,22.50
2019-03-26T05:43:24.589Z,22.50
2019-03-26T05:44:24.578Z,22.50
2019-03-26T05:45:24.572Z,22.50
2019-03-26T05:46:24.553Z,22.50
2019-03-26T05:47:24.569Z,22.50
2019-03-26T05:48:24.544Z,22.50
2019-03-26T05:49:24.525Z,22.50
2019-03-26T05:50:24.522Z,16.88
2019-03-26T05:51:24.531Z,22.50
2019-03-26T05:52:24.500Z,22.50
2019-03-26T05:53:24.491Z,22.50
2019-03-26T05:54:24.968Z,22.50
2019-03-26T05:55:24.466Z,22.50
2019-03-26T05:56:24.452Z,16.88
2019-03-26T05:57:24.441Z,22.50
2019-03-26T05:58:24.437Z,22.50
2019-03-26T05:59:24.429Z,22.50
2019-03-26T06:00:24.438Z,22.50
2019-03-26T06:01:24.408Z,22.50
2019-03-26T06:02:24.414Z,22.50
2019-03-26T06:03:24.381Z,28.12
2019-03-26T06:04:24.369Z,28.12
2019-03-26T06:05:24.377Z,28.12
2019-03-26T06:06:24.359Z,22.50
2019-03-26T06:07:24.371Z,39.38
2019-03-26T06:08:24.332Z,33.75
2019-03-26T06:09:24.324Z,33.75
2019-03-26T06:10:24.306Z,39.38
2019-03-26T06:11:24.317Z,45.00
2019-03-26T06:12:24.290Z,50.62
2019-03-26T06:13:24.302Z,61.88
2019-03-26T06:14:24.271Z,67.50
2019-03-26T06:15:24.259Z,67.50
2019-03-26T06:16:37.649Z,78.75
2019-03-26T06:17:25.237Z,78.75
2019-03-26T06:18:24.255Z,84.38
2019-03-26T06:19:24.221Z,78.75
2019-03-26T06:20:24.211Z,78.75
2019-03-26T06:21:24.204Z,90.00
2019-03-26T06:22:24.182Z,78.75
2019-03-26T06:23:24.183Z,90.00
2019-03-26T06:24:24.187Z,101.25
2019-03-26T06:25:24.162Z,101.25
2019-03-26T06:26:24.158Z,112.50
2019-03-26T06:27:24.132Z,112.50
2019-03-26T06:28:24.123Z,140.62
2019-03-26T06:29:24.133Z,123.75
2019-03-26T06:30:24.096Z,135.00
2019-03-26T06:31:24.126Z,140.62
2019-03-26T06:32:24.081Z,151.88
2019-03-26T06:33:24.079Z,202.50
2019-03-26T06:34:24.096Z,213.75
2019-03-26T06:35:24.057Z,208.12
2019-03-26T06:36:24.036Z,292.50
2019-03-26T06:37:24.030Z,348.75
2019-03-26T06:38:24.020Z,388.12
2019-03-26T06:39:24.010Z,298.12
2019-03-26T06:40:24.045Z,275.62
2019-03-26T06:41:23.984Z,337.50
2019-03-26T06:42:23.972Z,405.00
2019-03-26T06:43:23.980Z,427.50
2019-03-26T06:44:23.978Z,315.00
2019-03-26T06:45:23.951Z,292.50
2019-03-26T06:46:23.937Z,236.25
2019-03-26T06:47:23.919Z,196.88
2019-03-26T06:48:24.032Z,213.75
2019-03-26T06:49:23.948Z,219.38
2019-03-26T06:50:23.887Z,219.38
2019-03-26T06:51:23.885Z,208.12
2019-03-26T06:52:23.874Z,180.00
2019-03-26T06:53:23.868Z,191.25
2019-03-26T06:54:23.882Z,219.38
2019-03-26T06:55:23.852Z,225.00
2019-03-26T06:56:23.836Z,213.75
2019-03-26T06:57:35.124Z,225.00
2019-03-26T06:58:24.811Z,236.25
2019-03-26T06:59:23.793Z,236.25
2019-03-26T07:00:23.813Z,219.38
2019-03-26T07:01:23.775Z,241.88
2019-03-26T07:02:23.766Z,241.88
2019-03-26T07:03:23.764Z,219.38
2019-03-26T07:04:23.751Z,213.75
2019-03-26T07:05:23.739Z,225.00
2019-03-26T07:06:23.748Z,208.12
2019-03-26T07:07:31.564Z,196.88
2019-03-26T07:08:24.719Z,230.62
2019-03-26T07:09:23.699Z,264.38
2019-03-26T07:10:23.707Z,281.25
2019-03-26T07:11:23.694Z,315.00
2019-03-26T07:12:23.662Z,286.88
2019-03-26T07:13:23.656Z,331.88
2019-03-26T07:14:23.660Z,315.00
2019-03-26T07:15:23.637Z,253.12
2019-03-26T07:16:24.503Z,191.25
2019-03-26T07:17:23.617Z,213.75
2019-03-26T07:18:23.603Z,213.75
2019-03-26T07:19:23.598Z,225.00
2019-03-26T07:20:23.577Z,219.38
2019-03-26T07:21:23.566Z,225.00
2019-03-26T07:22:23.578Z,208.12
2019-03-26T07:23:23.551Z,213.75
2019-03-26T07:24:23.539Z,213.75
2019-03-26T07:25:23.529Z,230.62
2019-03-26T07:26:23.540Z,230.62
2019-03-26T07:27:23.529Z,219.38
2019-03-26T07:28:23.495Z,225.00
2019-03-26T07:29:23.484Z,247.50
2019-03-26T07:30:23.486Z,236.25
2019-03-26T07:31:23.463Z,202.50
2019-03-26T07:32:23.480Z,185.62
2019-03-26T07:33:23.442Z,185.62
2019-03-26T07:34:23.440Z,247.50
2019-03-26T07:35:23.431Z,320.62
2019-03-26T07:36:23.420Z,382.50
2019-03-26T07:37:23.413Z,472.50
2019-03-26T07:38:23.421Z,500.62
2019-03-26T07:39:23.380Z,1305.00
2019-03-26T07:40:23.375Z,1963.12
2019-03-26T07:41:23.382Z,1231.88
2019-03-26T07:42:23.382Z,1125.00
2019-03-26T07:43:23.353Z,1310.62
2019-03-26T07:44:23.338Z,961.88
2019-03-26T07:45:23.323Z,1265.62
2019-03-26T07:46:23.311Z,1563.75
2019-03-26T07:47:23.335Z,1951.88
2019-03-26T07:48:23.293Z,2143.12
2019-03-26T07:49:23.280Z,2098.12
2019-03-26T07:50:23.274Z,877.50
2019-03-26T07:51:23.275Z,630.00
2019-03-26T07:52:23.290Z,1513.12
2019-03-26T07:53:23.944Z,2396.25
2019-03-26T07:54:23.961Z,950.62
2019-03-26T07:55:23.220Z,1507.50
2019-03-26T07:56:23.220Z,956.25
2019-03-26T07:57:23.193Z,911.25
2019-03-26T07:58:23.180Z,2238.75
2019-03-26T07:59:23.209Z,1102.50
2019-03-26T08:00:23.200Z,815.62
2019-03-26T08:01:23.165Z,1125.00
2019-03-26T08:02:23.153Z,973.12
2019-03-26T08:03:23.132Z,511.88
2019-03-26T08:04:23.131Z,551.25
2019-03-26T08:05:29.616Z,641.25
2019-03-26T08:06:24.115Z,736.88
2019-03-26T08:07:23.094Z,2520.00
2019-03-26T08:08:23.076Z,990.00
2019-03-26T08:09:23.192Z,973.12
2019-03-26T08:10:23.060Z,1181.25
2019-03-26T08:11:23.064Z,1845.00
2019-03-26T08:12:23.032Z,855.00
2019-03-26T08:13:23.115Z,1040.62
2019-03-26T08:14:23.016Z,1276.88
2019-03-26T08:15:23.040Z,1001.25
2019-03-26T08:16:23.016Z,1085.62
2019-03-26T08:17:23.006Z,1597.50
2019-03-26T08:18:22.972Z,1091.25
2019-03-26T08:19:22.965Z,1074.38
2019-03-26T08:20:22.949Z,1237.50
2019-03-26T08:21:22.942Z,1355.62
2019-03-26T08:22:22.924Z,1445.62
2019-03-26T08:23:22.942Z,1260.00
2019-03-26T08:24:22.902Z,1507.50
2019-03-26T08:25:22.893Z,1136.25
2019-03-26T08:26:22.917Z,1293.75
2019-03-26T08:27:22.874Z,1501.88
2019-03-26T08:28:22.864Z,1676.25
2019-03-26T08:29:22.877Z,1029.38
2019-03-26T08:30:22.864Z,1170.00
2019-03-26T08:31:22.839Z,1372.50
2019-03-26T08:32:22.820Z,1164.38
2019-03-26T08:33:23.513Z,1518.75
2019-03-26T08:34:22.829Z,1760.62
2019-03-26T08:35:22.794Z,1012.50
2019-03-26T08:36:22.775Z,1035.00
2019-03-26T08:37:22.759Z,1468.12
2019-03-26T08:38:22.753Z,1569.38
2019-03-26T08:39:22.757Z,2328.75
2019-03-26T08:40:23.552Z,753.75
2019-03-26T08:41:22.744Z,748.12
2019-03-26T08:42:22.717Z,658.12
2019-03-26T08:43:22.698Z,483.75
2019-03-26T08:44:22.695Z,354.38
2019-03-26T08:45:22.688Z,343.12
2019-03-26T08:46:22.688Z,315.00
2019-03-26T08:47:22.659Z,416.25
2019-03-26T08:48:22.655Z,450.00
2019-03-26T08:49:22.634Z,438.75
2019-03-26T08:50:22.628Z,433.12
2019-03-26T08:51:22.658Z,382.50
2019-03-26T08:52:22.610Z,292.50
2019-03-26T08:53:22.611Z,388.12
2019-03-26T08:54:22.593Z,315.00
2019-03-26T08:55:22.570Z,331.88
2019-03-26T08:56:22.581Z,360.00
2019-03-26T08:57:22.574Z,286.88
2019-03-26T08:58:22.549Z,258.75
2019-03-26T08:59:22.533Z,292.50
2019-03-26T09:00:22.529Z,410.62
2019-03-26T09:01:22.512Z,534.38
2019-03-26T09:02:22.538Z,663.75
2019-03-26T09:03:22.501Z,742.50
2019-03-26T09:04:22.487Z,725.62
2019-03-26T09:05:22.476Z,787.50
2019-03-26T09:06:22.462Z,731.25
2019-03-26T09:07:22.449Z,866.25
2019-03-26T09:08:25.591Z,961.88
2019-03-26T09:09:22.423Z,950.62
2019-03-26T09:10:22.416Z,877.50
2019-03-26T09:11:22.414Z,860.62
2019-03-26T09:12:22.396Z,916.88
2019-03-26T09:13:22.387Z,1057.50
2019-03-26T09:14:22.409Z,1130.62
2019-03-26T09:15:22.363Z,990.00
2019-03-26T09:16:22.354Z,961.88
2019-03-26T09:17:22.349Z,736.88
2019-03-26T09:18:22.331Z,607.50
2019-03-26T09:19:22.340Z,483.75
2019-03-26T09:20:22.307Z,421.88
2019-03-26T09:21:22.316Z,393.75
2019-03-26T09:22:22.284Z,388.12
2019-03-26T09:23:22.282Z,365.62
2019-03-26T09:24:22.302Z,360.00
2019-03-26T09:25:22.284Z,354.38
2019-03-26T09:26:22.256Z,393.75
2019-03-26T09:27:22.235Z,438.75
2019-03-26T09:28:22.222Z,382.50
2019-03-26T09:29:22.218Z,264.38
2019-03-26T09:30:22.305Z,253.12
2019-03-26T09:31:22.200Z,326.25
2019-03-26T09:32:22.190Z,348.75
2019-03-26T09:33:22.173Z,489.38
2019-03-26T09:34:22.155Z,669.38
2019-03-26T09:35:22.150Z,826.88
2019-03-26T09:36:22.208Z,883.12
2019-03-26T09:37:22.131Z,821.25
2019-03-26T09:38:22.126Z,798.75
2019-03-26T09:39:22.105Z,731.25
2019-03-26T09:40:22.105Z,658.12
2019-03-26T09:41:22.109Z,613.12
2019-03-26T09:42:22.072Z,607.50
2019-03-26T09:43:22.066Z,590.62
2019-03-26T09:44:22.054Z,556.88
2019-03-26T09:45:22.046Z,568.12
2019-03-26T09:46:22.038Z,658.12
2019-03-26T09:47:22.052Z,669.38
2019-03-26T09:48:22.019Z,601.88
2019-03-26T09:49:22.005Z,556.88
2019-03-26T09:50:21.998Z,635.62
2019-03-26T09:51:21.977Z,630.00
2019-03-26T09:52:21.967Z,601.88
2019-03-26T09:53:21.986Z,573.75
2019-03-26T09:54:22.019Z,517.50
2019-03-26T09:55:21.941Z,371.25
2019-03-26T09:56:28.495Z,309.38
2019-03-26T09:57:22.918Z,348.75
2019-03-26T09:58:21.909Z,472.50
2019-03-26T09:59:21.915Z,765.00
2019-03-26T10:00:21.881Z,292.50
2019-03-26T10:01:21.871Z,258.75
2019-03-26T10:02:21.864Z,258.75
2019-03-26T10:03:21.855Z,286.88
2019-03-26T10:04:21.871Z,303.75
2019-03-26T10:05:21.829Z,286.88
2019-03-26T10:06:23.545Z,337.50
2019-03-26T10:07:22.137Z,298.12
2019-03-26T10:08:21.814Z,298.12
2019-03-26T10:09:21.798Z,326.25
2019-03-26T10:10:21.812Z,433.12
2019-03-26T10:11:21.765Z,551.25
2019-03-26T10:12:21.758Z,1006.88
2019-03-26T10:13:21.749Z,2525.62
2019-03-26T10:14:21.734Z,1625.62
2019-03-26T10:15:21.738Z,1305.00
2019-03-26T10:16:21.743Z,1181.25
2019-03-26T10:17:21.722Z,1068.75
2019-03-26T10:18:21.726Z,967.50
2019-03-26T10:19:21.701Z,883.12
2019-03-26T10:20:21.667Z,759.38
2019-03-26T10:21:21.666Z,703.12
2019-03-26T10:22:21.652Z,618.75
2019-03-26T10:23:21.641Z,646.88
2019-03-26T10:24:21.714Z,562.50
2019-03-26T10:25:21.614Z,478.12
2019-03-26T10:26:21.605Z,433.12
2019-03-26T10:27:21.619Z,388.12
2019-03-26T10:28:21.594Z,416.25
2019-03-26T10:29:30.122Z,433.12
2019-03-26T10:30:24.872Z,511.88
2019-03-26T10:31:21.551Z,624.38
2019-03-26T10:32:21.544Z,742.50
2019-03-26T10:33:21.531Z,585.00
2019-03-26T10:34:21.538Z,455.62
2019-03-26T10:35:21.522Z,427.50
2019-03-26T10:36:21.503Z,421.88
2019-03-26T10:37:21.487Z,444.38
2019-03-26T10:38:21.476Z,455.62
2019-03-26T10:39:21.490Z,562.50
2019-03-26T10:40:21.466Z,669.38
2019-03-26T10:41:21.497Z,618.75
2019-03-26T10:42:21.442Z,433.12
2019-03-26T10:43:21.427Z,337.50
2019-03-26T10:44:21.415Z,315.00
2019-03-26T10:45:21.404Z,343.12
2019-03-26T10:46:21.404Z,500.62
2019-03-26T10:47:21.419Z,579.38
2019-03-26T10:48:21.380Z,556.88
2019-03-26T10:49:21.365Z,568.12
2019-03-26T10:50:21.387Z,753.75
2019-03-26T10:51:21.342Z,1147.50
2019-03-26T10:52:21.387Z,1012.50
2019-03-26T10:53:21.334Z,776.25
2019-03-26T10:54:21.312Z,568.12
2019-03-26T10:55:21.297Z,444.38
2019-03-26T10:56:21.307Z,354.38
2019-03-26T10:57:21.957Z,376.88
2019-03-26T10:58:21.271Z,410.62
2019-03-26T10:59:21.281Z,483.75
2019-03-26T11:00:21.260Z,596.25
2019-03-26T11:01:21.261Z,658.12
2019-03-26T11:02:21.252Z,810.00
2019-03-26T11:03:21.219Z,928.12
2019-03-26T11:04:21.206Z,1113.75
2019-03-26T11:05:21.195Z,973.12
2019-03-26T11:06:21.228Z,742.50
2019-03-26T11:07:21.181Z,731.25
2019-03-26T11:08:21.169Z,815.62
2019-03-26T11:09:26.858Z,601.88
2019-03-26T11:10:22.137Z,596.25
2019-03-26T11:11:21.135Z,551.25
2019-03-26T11:12:21.157Z,511.88
2019-03-26T11:13:21.114Z,888.75
2019-03-26T11:14:21.100Z,1141.88
2019-03-26T11:15:21.087Z,956.25
2019-03-26T11:16:21.079Z,748.12
2019-03-26T11:17:21.060Z,641.25
2019-03-26T11:18:21.071Z,556.88
2019-03-26T11:19:21.047Z,562.50
2019-03-26T11:20:21.037Z,523.12
2019-03-26T11:21:21.034Z,568.12
2019-03-26T11:22:21.037Z,523.12
2019-03-26T11:23:21.008Z,365.62
2019-03-26T11:24:21.019Z,292.50
2019-03-26T11:25:20.989Z,286.88
2019-03-26T11:26:20.973Z,298.12
2019-03-26T11:27:20.959Z,399.38
2019-03-26T11:28:20.945Z,348.75
2019-03-26T11:29:20.935Z,382.50
2019-03-26T11:30:20.958Z,500.62
2019-03-26T11:31:20.928Z,466.88
2019-03-26T11:32:20.916Z,478.12
2019-03-26T11:33:20.903Z,461.25
2019-03-26T11:34:20.886Z,405.00
2019-03-26T11:35:20.871Z,388.12
2019-03-26T11:36:20.881Z,298.12
2019-03-26T11:37:20.855Z,258.75
2019-03-26T11:38:20.942Z,281.25
2019-03-26T11:39:32.205Z,303.75
2019-03-26T11:40:21.823Z,309.38
2019-03-26T11:41:20.836Z,315.00
2019-03-26T11:42:20.801Z,320.62
2019-03-26T11:43:20.800Z,286.88
2019-03-26T11:44:20.783Z,247.50
2019-03-26T11:45:20.774Z,264.38
2019-03-26T11:46:20.771Z,270.00
2019-03-26T11:47:20.773Z,303.75
2019-03-26T11:48:20.735Z,225.00
2019-03-26T11:49:20.732Z,219.38
2019-03-26T11:50:20.714Z,236.25
2019-03-26T11:51:20.715Z,241.88
2019-03-26T11:52:20.700Z,225.00
2019-03-26T11:53:20.716Z,230.62
2019-03-26T11:54:20.683Z,275.62
2019-03-26T11:55:21.938Z,286.88
2019-03-26T11:56:20.647Z,326.25
2019-03-26T11:57:20.651Z,303.75
2019-03-26T11:58:30.295Z,275.62
2019-03-26T11:59:22.046Z,286.88
2019-03-26T12:00:20.609Z,270.00
2019-03-26T12:01:20.602Z,230.62
2019-03-26T12:02:20.646Z,230.62
2019-03-26T12:03:20.582Z,241.88
2019-03-26T12:04:20.570Z,286.88
2019-03-26T12:05:21.061Z,348.75
2019-03-26T12:06:20.564Z,270.00
2019-03-26T12:07:20.531Z,236.25
2019-03-26T12:08:20.526Z,208.12
2019-03-26T12:09:20.516Z,213.75
2019-03-26T12:10:20.501Z,196.88
2019-03-26T12:11:20.546Z,174.38
2019-03-26T12:12:20.487Z,163.12
2019-03-26T12:13:20.469Z,168.75
2019-03-26T12:14:20.460Z,174.38
2019-03-26T12:15:20.452Z,180.00
2019-03-26T12:16:20.478Z,185.62
2019-03-26T12:17:20.433Z,185.62
2019-03-26T12:18:20.427Z,168.75
2019-03-26T12:19:20.409Z,174.38
2019-03-26T12:20:20.395Z,174.38
2019-03-26T12:21:20.389Z,168.75
2019-03-26T12:22:20.407Z,151.88
2019-03-26T12:23:20.370Z,163.12
2019-03-26T12:24:20.371Z,157.50
2019-03-26T12:25:20.346Z,157.50
2019-03-26T12:26:20.339Z,168.75
2019-03-26T12:27:20.321Z,202.50
2019-03-26T12:28:20.347Z,258.75
2019-03-26T12:29:20.306Z,264.38
2019-03-26T12:30:20.297Z,230.62
2019-03-26T12:31:20.286Z,275.62
2019-03-26T12:32:20.281Z,371.25
2019-03-26T12:33:20.260Z,315.00
2019-03-26T12:34:20.296Z,275.62
2019-03-26T12:35:20.241Z,225.00
2019-03-26T12:36:20.233Z,180.00
2019-03-26T12:37:20.224Z,225.00
2019-03-26T12:38:20.216Z,455.62
2019-03-26T12:39:20.192Z,405.00
2019-03-26T12:40:20.226Z,348.75
2019-03-26T12:41:20.178Z,331.88
2019-03-26T12:42:20.162Z,562.50
2019-03-26T12:43:20.172Z,1271.25
2019-03-26T12:44:20.155Z,1479.38
2019-03-26T12:45:20.147Z,3639.38
2019-03-26T12:46:20.145Z,3791.25
2019-03-26T12:47:20.117Z,3751.88